This is the latest recevied weather packets stored in our database for station/object SP2CDN-10. If no packets are shown the sender has not sent any weather packets the latest 10 day(s).
| Time | Temp. | Humidity | Pressure | Rain* | Wind** | Luminosity | Snow |
|---|---|---|---|---|---|---|---|
| 1777157449 | 6.11° C | 75% | 1005.3 hPa | - | - | - | - |
| 1777152889 | 8.89° C | 47% | 1005 hPa | - | - | - | - |
| 1777150609 | 9.44° C | 51% | 1004.6 hPa | - | - | - | - |
| 1777148327 | 9.44° C | 53% | 1005 hPa | - | - | - | - |
| 1777146046 | 10° C | 56% | 1005.1 hPa | - | - | - | - |
| 1777143764 | 10.56° C | 59% | 1005.5 hPa | - | - | - | - |
| 1777139196 | 11.11° C | 57% | 1005 hPa | - | - | - | - |
| 1777110443 | 11.67° C | 59% | 1007.1 hPa | - | - | - | - |
| 1777108162 | 10° C | 76% | 1007.4 hPa | - | - | - | - |
| 1777105880 | 9.44° C | 88% | 1007.6 hPa | - | - | - | - |
| 1777103599 | 9.44° C | 85% | 1007.5 hPa | - | - | - | - |
| 1777101317 | 9.44° C | 86% | 1007.8 hPa | - | - | - | - |
| 1777099035 | 9.44° C | 86% | 1007.8 hPa | - | - | - | - |
| 1777096754 | 8.33° C | 93% | 1008.2 hPa | - | - | - | - |
| 1777094472 | 8.33° C | 96% | 1008.1 hPa | - | - | - | - |
| 1777092191 | 7.78° C | 97% | 1008.2 hPa | - | - | - | - |
| 1777089909 | 7.22° C | 96% | 1008.3 hPa | - | - | - | - |
| 1777087628 | 7.78° C | 93% | 1008.6 hPa | - | - | - | - |
| 1777085346 | 7.78° C | 89% | 1008.8 hPa | - | - | - | - |
| 1777083064 | 8.33° C | 86% | 1009.1 hPa | - | - | - | - |
| 1777080783 | 8.89° C | 79% | 1009.2 hPa | - | - | - | - |
| 1777078501 | 9.44° C | 75% | 1009.4 hPa | - | - | - | - |
| 1777076220 | 10° C | 71% | 1009.8 hPa | - | - | - | - |
| 1777073938 | 10.56° C | 66% | 1010 hPa | - | - | - | - |
| 1777071656 | 11.11° C | 60% | 1010.4 hPa | - | - | - | - |
* Rain since midnight (hover to see other rain measurements)
** Current wind speed in m/s (hover to see current wind gust speed)